Almora, Minnesota
Current Conditions -  °F | °C
As of 7:35 AM on Sunday 23 Nov 2014 (Local Time) from KADC Reporting Station
Unknown Precip Unknown Precip  
Wind Chill: 34°   Ceiling: 7000
Heat Index: 34°   Visibility: 5mi
Dew Point: 34°   Wind: 3mph
Humidity: 100%   Direction: 250°WSW
Pressure: 29.41"   Gusts: NA
Location:  46.3245°N, 95.3401°W
Report Text: KADC 231335Z AUTO 25003KT 5SM UP SCT065 BKN070 OVC090 01/01 A2941 RMK AO2
Loading
Personal Weather Stations






























Interactive Weather Map New forecast layout! Learn more

10-Day Weather Forecast

Advertisements
Track Severe Weather on mobile